Weather observations for the past three days for
Nuiqsut, Nuiqsut Airport
Imperial (Metric)
Date Time (akdt) Wind (mph) Vis. (mi.) Weather Sky Cond. Temperature (ºF) Relative Humidity Wind Chill (°F) Heat Index (°F) Pressure Precipitation (in)
Air Dwpt 6 hour altimeter (in) sea level (mb) 1 hr 3 hr 6 hr
Max. Min.
05 14:53 NW 9 3.00 Light Snow SCT008 BKN012 OVC032 27 21 78% 19 29.78 1008.5 0.01
05 13:53 N 8 2.00 Light Snow SCT007 OVC037 28 21 75% 21 29.78 1008.6
05 12:53 N 8 2.00 Light Snow SCT009 BKN013 OVC032 27 21 78% 19 29.79 1008.9 0.01
05 11:53 N 8 1.25 Light Snow BKN009 BKN031 OVC039 27 21 78% 19 29.8 1009.0
05 10:53 N 9 1.00 Light Snow FEW006 BKN024 OVC034 26.1 21 81% 18 29.81 1009.4 0.01
05 09:53 N 10 0.75 Light Snow BKN018 OVC027 26.1 21 26.1 25 81% 17 29.82 1009.8
05 08:53 N 8 2.50 Light Snow OVC015 26.1 21 81% 18 29.83 1010.2
05 07:53 NE 8 1.50 Light Snow Fog/Mist BKN008 OVC013 25 21 85% 17 29.84 1010.5
05 06:53 NE 10 4.00 Unknown Precip Fog/Mist OVC008 25 21 85% 16 29.85 1010.9
05 05:53 NE 12 2.00 Unknown Precip Fog/Mist OVC004 25 21.9 88% 15 29.87 1011.5
05 04:53 NE 14 1.25 Unknown Precip Fog/Mist OVC004 25 21 85% 14 29.88 1012.0
05 03:53 NE 15 1.75 Unknown Precip Fog/Mist OVC004 26.1 21.9 28 26.1 84% 15 29.9 1012.4
05 02:53 NE 15 3.00 Unknown Precip Fog/Mist OVC005 26.1 21.9 84% 15 29.91 1012.9
05 01:53 NE 15 2.50 Unknown Precip Fog/Mist OVC004 27 23 85% 16 29.93 1013.6
05 00:53 NE 15 1.50 Unknown Precip Fog/Mist OVC004 27 23 85% 16 29.95 1014.2
04 23:53 NE 12 0.50 Light Snow Freezing Fog VV009 27 24.1 89% 17 29.97 1015.0
04 22:53 NE 13 0.50 Light Snow Freezing Fog OVC011 28 24.1 85% 18 29.98 1015.4
04 21:53 NE 12 4.00 Unknown Precip Fog/Mist OVC004 28 24.1 30.9 28 85% 19 30.01 1016.2
04 20:53 NE 16 2.50 Unknown Precip Fog/Mist OVC004 28 24.1 85% 17 30.02 1016.7
04 19:53 E 15 6.00 Unknown Precip Fog/Mist OVC005 28.9 25 85% 18 30.03 1017.1
04 18:53 E 16 9.00 Overcast OVC006 28.9 25 85% 18 30.05 1017.7
04 17:53 E 18 10.00 Overcast OVC006 28.9 24.1 82% 17 30.07 1018.3
04 16:53 E 20 10.00 Overcast OVC007 30 24.1 79% 18 30.09 1018.9
04 15:53 E 16 10.00 Unknown Precip OVC006 30.9 25 30.9 28.9 79% 21 30.1 1019.4
04 14:53 E 16 10.00 Unknown Precip OVC006 30.9 26.1 82% 21 30.12 1020.0
04 13:53 E 16 6.00 Unknown Precip OVC006 30.9 25 79% 21 30.13 1020.4
04 12:53 E 15 8.00 Unknown Precip BKN007 BKN024 OVC038 30 25 82% 20 30.14 1020.8
04 11:53 E 14 10.00 Unknown Precip SCT007 SCT017 OVC041 28.9 24.1 82% 19 30.15 1021.0
04 10:53 E 14 10.00 Unknown Precip BKN005 OVC044 28.9 24.1 82% 19 30.17 1021.6
04 09:53 E 12 5.00 Light Snow Fog/Mist FEW003 OVC044 28.9 25 28.9 27 85% 20 30.17 1021.6
04 08:53 E 13 7.00 Overcast OVC003 28 24.1 85% 18 30.17 1021.9
04 07:53 E 9 10.00 Unknown Precip BKN004 OVC042 28 24.1 85% 20 30.17 1021.8
04 06:53 E 10 10.00 Overcast BKN043 OVC050 28 23 81% 19 30.17 1021.8
04 05:53 E 8 7.00 Unknown Precip OVC044 28 24.1 85% 21 30.18 1022.0
04 04:53 NE 7 7.00 Overcast OVC046 27 23 85% 20 30.18 1022.0
04 03:53 E 8 8.00 Overcast OVC048 28 24.1 30.9 27 85% 21 30.18 1022.0
04 02:53 NE 7 9.00 Unknown Precip SCT020 OVC049 28 24.1 85% 22 30.17 1021.8
04 01:53 N 8 10.00 Unknown Precip BKN006 OVC050 28 24.1 85% 21 30.16 1021.5
04 00:53 N 9 9.00 Unknown Precip FEW016 OVC050 28 24.1 85% 20 30.17 1021.6
03 23:53 NW 9 10.00 Unknown Precip OVC048 28.9 23 78% 21 30.16 1021.4
03 22:53 NW 7 10.00 Unknown Precip OVC049 30 25 82% 24 30.15 1021.0
03 21:53 NW 3 10.00 Overcast OVC050 30.9 25 35.1 30.9 79% 30.13 1020.5
03 20:53 NW 5 10.00 Unknown Precip OVC055 32 26.1 79% 28 30.12 1020.1
03 19:53 W 6 10.00 Overcast FEW009 OVC060 33.1 27 78% 28 30.12 1020.0
03 18:53 W 7 10.00 Overcast BKN008 OVC060 34 28 79% 29 30.1 1019.4
03 17:53 W 7 10.00 Overcast BKN008 OVC060 34 28.9 82% 29 30.08 1018.7
03 16:53 W 8 10.00 Overcast OVC008 34 28.9 82% 28 30.07 1018.2
03 15:53 W 10 8.00 Overcast BKN007 OVC060 33.1 27 34 30 78% 26 30.05 1017.7
03 14:53 W 14 7.00 Overcast SCT005 BKN042 OVC060 33.1 28 82% 24 30.02 1016.7
03 13:53 W 14 8.00 Overcast SCT005 BKN060 OVC080 33.1 28 82% 24 30 1015.8
03 12:53 W 20 10.00 Overcast BKN055 OVC070 34 28 79% 23 29.96 1014.5
03 11:53 W 20 10.00 Overcast OVC050 33.1 28 82% 22 29.93 1013.6
03 10:53 SW 21 4.00 Fog/Mist and Breezy OVC004 30.9 27 85% 19 29.91 1012.8
03 09:53 SW 21 10.00 Overcast and Breezy OVC110 32 27 32 24.1 82% 21 29.88 1012.0
03 08:53 SW 7 10.00 Fair CLR 28 24.1 85% 22 29.87 1011.4
03 07:53 SW 8 10.00 Mostly Cloudy FEW075 BKN110 28.9 24.1 82% 22 29.85 1011.0
03 06:53 S 5 10.00 Overcast OVC075 27 23 85% 22 29.84 1010.5
03 05:53 S 5 6.00 Fog/Mist BKN070 25 21.9 88% 20 29.83 1010.2
03 04:53 Calm 6.00 Fog/Mist SCT055 27 24.1 89% 29.82 1010.0
03 03:53 E 6 6.00 Fog/Mist FEW055 BKN090 27 23 30.9 27 85% 21 29.81 1009.4
03 02:53 E 3 7.00 Overcast FEW013 BKN028 OVC065 30 25 82% 29.8 1009.3
03 01:53 Calm 7.00 Overcast BKN014 OVC027 30 26.1 85% 29.79 1009.0
03 00:53 E 5 8.00 Overcast FEW011 BKN017 OVC038 30 25 82% 26 29.78 1008.5
02 23:53 E 3 7.00 Overcast OVC010 30 25 82% 29.77 1008.1
02 22:53 Calm 8.00 Overcast OVC019 30 24.1 79% 29.76 1007.7
02 21:53 Calm 8.00 Overcast FEW009 OVC026 30 24.1 30.9 28.9 79% 29.74 1007.2
02 20:53 Calm 8.00 Overcast OVC009 30 25 82% 29.72 1006.6
02 19:53 Calm 7.00 Overcast OVC008 30 25 82% 29.71 1006.2
02 18:53 E 3 8.00 Overcast OVC009 30.9 24.1 76% 29.7 1005.6
02 17:53 E 5 8.00 Overcast OVC009 30 24.1 79% 26 29.68 1005.1
02 16:53 NE 5 8.00 Overcast OVC008 30 25 82% 26 29.66 1004.6
02 15:53 E 5 8.00 Overcast OVC008 28.9 24.1 28.9 25 82% 25 29.65 1003.9
Date Time (akdt) Wind (mph) Vis. (mi.) Weather Sky Cond. Air Dwpt Max. Min. Relative Humidity Wind Chill (°F) Heat Index (°F) altimeter (in) sea level (mb) 1 hr 3 hr 6 hr
6 hour
Temperature (ºF) Pressure Precipitation (in)